Time;durP1;ratioP1;P1;durP2;ratioP2;P2;SDS_P1;SDS_P2;PMS_P1;PMS_P2;Temp;Humidity;BMP_temperature;BMP_pressure;BME280_temperature;BME280_humidity;BME280_pressure;Samples;Min_cycle;Max_cycle;Signal;HPM_P1;HPM_P2
2024/04/02 00:01:13;;;;;;;20.70;4.18;;;;;;;8.19;78.44;95884.56;7399372;19;19999;-56
2024/04/02 00:03:42;;;;;;;15.85;4.40;;;;;;;8.30;78.52;95885.88;7397646;19;19998;-60
2024/04/02 00:06:08;;;;;;;21.30;4.32;;;;;;;8.43;77.78;95889.72;7399106;19;20353;-55
2024/04/02 00:08:35;;;;;;;19.15;4.20;;;;;;;8.33;78.22;95889.25;7399084;19;19994;-61
2024/04/02 00:11:02;;;;;;;21.33;3.83;;;;;;;8.36;78.88;95884.81;7399016;19;19999;-57
2024/04/02 00:13:28;;;;;;;25.95;4.45;;;;;;;8.74;75.72;95890.28;7399213;19;20014;-60
2024/04/02 00:15:54;;;;;;;23.63;4.78;;;;;;;8.65;76.74;95888.91;7398820;19;20465;-55
2024/04/02 00:18:19;;;;;;;18.48;3.92;;;;;;;8.80;76.00;95889.16;7398687;19;20020;-59
2024/04/02 00:20:45;;;;;;;24.45;4.68;;;;;;;8.79;75.99;95896.13;7398782;19;19995;-53
2024/04/02 00:23:11;;;;;;;19.65;3.75;;;;;;;9.04;75.11;95892.53;7398538;19;20018;-57
2024/04/02 00:25:37;;;;;;;16.70;4.00;;;;;;;8.82;77.80;95893.41;7396222;19;20058;-56
2024/04/02 00:28:03;;;;;;;21.95;4.57;;;;;;;8.42;80.26;95900.19;7398406;19;20089;-56
2024/04/02 00:30:30;;;;;;;15.27;4.43;;;;;;;8.25;81.55;95891.28;7396881;19;20578;-59
2024/04/02 00:32:56;;;;;;;19.30;4.63;;;;;;;8.22;82.02;95900.06;7398231;19;20067;-54
2024/04/02 00:35:22;;;;;;;20.38;4.35;;;;;;;8.36;80.33;95893.47;7398572;19;20415;-57
2024/04/02 00:37:49;;;;;;;17.95;4.03;;;;;;;8.53;79.57;95890.22;7398581;19;20011;-59
2024/04/02 00:40:16;;;;;;;23.20;4.30;;;;;;;8.50;79.90;95892.94;7398211;19;20006;-53
2024/04/02 00:42:42;;;;;;;14.40;2.42;;;;;;;8.47;79.61;95893.91;7398124;19;20003;-55
2024/04/02 00:45:07;;;;;;;27.20;3.80;;;;;;;8.42;79.25;95887.16;7396091;19;20040;-57
2024/04/02 00:47:34;;;;;;;16.55;4.45;;;;;;;8.49;78.49;95888.63;7397903;19;19998;-56
2024/04/02 00:50:01;;;;;;;14.65;4.00;;;;;;;8.38;80.20;95881.25;7397695;19;20023;-56
2024/04/02 00:52:27;;;;;;;27.45;4.75;;;;;;;8.38;80.15;95873.44;7397643;19;20003;-59
2024/04/02 00:54:54;;;;;;;21.70;3.78;;;;;;;8.33;80.02;95867.53;7397820;19;20002;-60
2024/04/02 00:57:20;;;;;;;14.43;3.70;;;;;;;8.54;79.86;95873.69;7397560;19;20345;-55
2024/04/02 00:59:47;;;;;;;25.50;4.72;;;;;;;8.53;78.86;95860.66;7397307;19;20003;-57
2024/04/02 01:02:13;;;;;;;20.50;4.95;;;;;;;8.57;79.04;95844.88;7396976;19;20390;-54
2024/04/02 01:04:39;;;;;;;13.85;3.92;;;;;;;8.36;82.23;95843.97;7396100;19;20114;-59
2024/04/02 01:07:05;;;;;;;24.95;4.47;;;;;;;8.38;82.61;95842.16;7397079;19;20003;-59
2024/04/02 01:09:30;;;;;;;25.67;4.00;;;;;;;8.46;80.85;95837.47;7397146;19;20022;-58
2024/04/02 01:11:57;;;;;;;22.73;4.43;;;;;;;8.65;79.96;95841.97;7397351;19;20003;-51
2024/04/02 01:14:23;;;;;;;22.05;3.78;;;;;;;8.81;78.86;95841.31;7396952;19;20468;-57
2024/04/02 01:16:48;;;;;;;18.25;3.50;;;;;;;8.63;80.33;95840.31;7397283;19;20032;-56
2024/04/02 01:19:14;;;;;;;17.25;4.07;;;;;;;8.78;79.49;95833.59;7396718;19;19998;-59
2024/04/02 01:21:39;;;;;;;21.02;3.92;;;;;;;8.22;82.66;95831.50;7396740;19;20014;-53
2024/04/02 01:24:05;;;;;;;16.20;4.03;;;;;;;8.36;81.77;95838.75;7396251;19;20011;-52
2024/04/02 01:26:31;;;;;;;24.85;4.68;;;;;;;8.45;81.75;95838.38;7396838;19;20563;-54
2024/04/02 01:29:02;;;;;;;14.68;4.10;;;;;;;8.52;81.62;95835.53;7396711;19;20002;-62
2024/04/02 01:31:28;;;;;;;29.38;4.25;;;;;;;8.38;82.40;95831.72;7396691;19;20090;-56
2024/04/02 01:33:54;;;;;;;20.70;4.18;;;;;;;8.34;82.43;95820.56;7396406;19;20007;-58
2024/04/02 01:36:19;;;;;;;24.15;4.28;;;;;;;8.43;82.89;95823.72;7396162;19;19998;-55
2024/04/02 01:38:45;;;;;;;21.90;5.18;;;;;;;8.27;83.44;95826.94;7396478;19;20026;-58
2024/04/02 01:41:11;;;;;;;21.58;4.50;;;;;;;8.19;83.23;95823.81;7396081;19;20461;-58
2024/04/02 01:43:37;;;;;;;21.23;4.22;;;;;;;8.14;83.63;95831.81;7395997;19;20015;-55
2024/04/02 01:46:02;;;;;;;18.48;3.90;;;;;;;7.92;84.64;95829.19;7395865;19;20006;-53
2024/04/02 01:48:28;;;;;;;18.17;3.90;;;;;;;7.75;86.11;95835.88;7396092;19;20065;-56
2024/04/02 01:50:53;;;;;;;13.82;4.43;;;;;;;8.03;83.15;95834.81;7394825;19;20007;-62
2024/04/02 01:53:19;;;;;;;25.38;4.95;;;;;;;8.61;79.26;95831.72;7395538;19;20007;-58
2024/04/02 01:55:45;;;;;;;18.25;4.60;;;;;;;8.82;77.88;95830.81;7395910;19;19998;-56
2024/04/02 01:58:11;;;;;;;22.90;5.00;;;;;;;8.32;82.00;95827.63;7395468;19;20011;-57
2024/04/02 02:00:36;;;;;;;23.33;5.30;;;;;;;8.06;83.28;95829.50;7395402;19;20005;-58
2024/04/02 02:03:03;;;;;;;21.00;4.72;;;;;;;7.82;85.26;95820.88;7394631;19;20006;-59
2024/04/02 02:05:29;;;;;;;27.85;5.25;;;;;;;7.87;84.27;95823.28;7392168;19;20038;-57
2024/04/02 02:07:54;;;;;;;20.00;5.38;;;;;;;7.46;87.33;95820.44;7394238;19;20011;-61
2024/04/02 02:10:20;;;;;;;18.00;4.65;;;;;;;7.73;85.61;95811.66;7395179;19;20385;-52
2024/04/02 02:12:45;;;;;;;28.13;5.13;;;;;;;7.84;85.11;95814.72;7395238;19;20010;-53
2024/04/02 02:15:11;;;;;;;22.05;4.57;;;;;;;8.32;81.66;95816.34;7395098;19;20457;-57
2024/04/02 02:17:36;;;;;;;29.40;5.55;;;;;;;8.18;82.74;95817.75;7394887;19;20359;-58
2024/04/02 02:20:03;;;;;;;19.95;5.93;;;;;;;7.95;85.49;95824.69;7394898;19;19995;-60
2024/04/02 02:22:28;;;;;;;19.55;5.05;;;;;;;8.12;84.49;95827.56;7393722;19;20026;-57
2024/04/02 02:24:54;;;;;;;38.80;5.30;;;;;;;8.28;83.96;95833.84;7393779;19;20058;-59
2024/04/02 02:27:19;;;;;;;32.55;5.38;;;;;;;8.30;83.14;95842.44;7395015;19;20001;-60
2024/04/02 02:29:45;;;;;;;26.33;4.72;;;;;;;7.94;86.17;95838.63;7394629;19;20002;-54
2024/04/02 02:32:10;;;;;;;19.52;4.45;;;;;;;7.89;87.09;95844.94;7394984;19;20006;-55
2024/04/02 02:34:36;;;;;;;27.42;5.32;;;;;;;7.92;87.27;95843.03;7394958;19;20459;-51
2024/04/02 02:37:01;;;;;;;25.02;5.53;;;;;;;7.96;85.69;95835.97;7394719;19;20062;-60
2024/04/02 02:39:27;;;;;;;25.55;5.75;;;;;;;7.86;85.49;95830.28;7394463;19;19999;-56
2024/04/02 02:41:52;;;;;;;24.17;5.35;;;;;;;7.74;87.08;95830.75;7394791;19;20014;-59
2024/04/02 02:44:19;;;;;;;30.20;4.78;;;;;;;7.84;86.12;95835.53;7393443;19;20332;-57
2024/04/02 02:46:44;;;;;;;23.42;5.20;;;;;;;8.00;85.57;95834.09;7394189;19;20012;-55
2024/04/02 02:49:10;;;;;;;22.85;4.90;;;;;;;7.85;86.45;95833.78;7394483;19;20003;-57
2024/04/02 02:51:35;;;;;;;23.92;4.50;;;;;;;7.61;87.99;95831.19;7394033;19;20361;-61
2024/04/02 02:54:00;;;;;;;30.77;5.22;;;;;;;7.64;87.97;95830.22;7394117;19;20034;-58
2024/04/02 02:56:26;;;;;;;17.35;4.53;;;;;;;7.58;87.89;95828.69;7393968;19;20346;-61
2024/04/02 02:58:52;;;;;;;24.25;4.90;;;;;;;7.54;88.03;95824.53;7393883;19;20006;-55
2024/04/02 03:01:18;;;;;;;27.95;5.43;;;;;;;7.62;87.63;95830.31;7393892;19;20006;-58
2024/04/02 03:03:47;;;;;;;17.27;4.25;;;;;;;7.76;86.59;95831.50;7397020;19;20026;-57
2024/04/02 03:06:13;;;;;;;21.75;4.95;;;;;;;7.78;86.25;95835.78;7401608;19;20025;-59
2024/04/02 03:08:39;;;;;;;33.60;5.65;;;;;;;7.77;87.33;95831.44;7401477;19;20394;-57
2024/04/02 03:11:06;;;;;;;19.48;4.85;;;;;;;7.66;87.71;95824.06;7401044;19;19995;-55
2024/04/02 03:13:33;;;;;;;15.25;4.32;;;;;;;7.81;87.70;95830.44;7401052;19;20017;-60
2024/04/02 03:15:59;;;;;;;21.35;4.60;;;;;;;7.76;87.77;95827.16;7400835;19;20002;-59
2024/04/02 03:18:24;;;;;;;17.95;4.95;;;;;;;7.35;89.74;95820.00;7400686;19;19998;-56
2024/04/02 03:20:50;;;;;;;30.23;5.63;;;;;;;7.42;89.63;95824.09;7400704;19;20002;-60
2024/04/02 03:23:17;;;;;;;22.05;4.65;;;;;;;7.39;89.11;95823.34;7401061;19;20002;-60
2024/04/02 03:25:54;;;;;;;21.90;5.60;;;;;;;7.37;90.36;95826.00;7397824;19;19998;-59
2024/04/02 03:28:20;;;;;;;31.75;5.70;;;;;;;7.47;89.37;95816.13;7400540;19;19995;-58
2024/04/02 03:30:46;;;;;;;25.70;4.18;;;;;;;7.39;90.06;95823.34;7400813;19;20393;-56
2024/04/02 03:33:12;;;;;;;15.85;4.07;;;;;;;7.50;89.28;95807.34;7400851;19;20049;-56
2024/04/02 03:35:38;;;;;;;26.38;5.15;;;;;;;7.36;90.71;95805.22;7400342;19;20481;-57
2024/04/02 03:38:03;;;;;;;21.65;5.07;;;;;;;7.37;89.81;95804.34;7400660;19;20003;-59
2024/04/02 03:40:30;;;;;;;18.45;4.15;;;;;;;7.36;87.67;95784.41;7400066;19;20358;-56
2024/04/02 03:42:55;;;;;;;27.25;5.00;;;;;;;7.19;90.89;95802.34;7400027;19;19998;-59
2024/04/02 03:45:21;;;;;;;29.30;5.25;;;;;;;7.24;90.39;95804.78;7397761;19;20002;-57
2024/04/02 03:47:47;;;;;;;19.92;4.45;;;;;;;7.44;90.04;95798.84;7399915;19;20006;-54
2024/04/02 03:50:12;;;;;;;18.05;5.07;;;;;;;7.34;90.35;95797.47;7400023;19;20013;-55
2024/04/02 03:52:38;;;;;;;32.08;6.00;;;;;;;7.60;88.97;95787.84;7400209;19;20010;-56
2024/04/02 03:55:04;;;;;;;22.63;5.15;;;;;;;7.77;88.24;95796.78;7399658;19;19999;-55
2024/04/02 03:57:29;;;;;;;20.25;5.05;;;;;;;7.55;88.59;95793.22;7399546;19;20018;-57
2024/04/02 03:59:55;;;;;;;23.85;4.95;;;;;;;7.43;89.76;95797.16;7399352;19;20009;-53
2024/04/02 04:02:21;;;;;;;20.02;4.88;;;;;;;7.67;88.53;95801.47;7398752;19;20010;-59
2024/04/02 04:04:48;;;;;;;21.17;4.30;;;;;;;7.54;90.36;95794.16;7397840;19;20506;-57
2024/04/02 04:07:14;;;;;;;24.90;4.30;;;;;;;6.99;93.51;95799.63;7399597;19;20002;-56
2024/04/02 04:09:39;;;;;;;26.98;4.60;;;;;;;7.35;91.74;95804.41;7399525;19;20394;-57
2024/04/02 04:12:05;;;;;;;25.60;5.15;;;;;;;7.39;91.02;95805.97;7399010;19;20359;-56
2024/04/02 04:14:31;;;;;;;27.38;5.93;;;;;;;7.05;93.68;95807.22;7397939;19;20100;-59
2024/04/02 04:16:56;;;;;;;17.95;4.55;;;;;;;7.34;91.83;95810.50;7397355;19;20018;-59
2024/04/02 04:19:21;;;;;;;16.25;4.30;;;;;;;7.33;91.62;95809.66;7399138;19;20003;-61
2024/04/02 04:21:47;;;;;;;17.58;5.38;;;;;;;7.52;89.54;95800.28;7399082;19;20022;-59
2024/04/02 04:24:13;;;;;;;22.10;4.97;;;;;;;7.58;89.77;95795.72;7398172;19;20028;-59
2024/04/02 04:26:38;;;;;;;26.05;5.57;;;;;;;7.67;88.61;95793.66;7398698;19;20002;-57
2024/04/02 04:29:04;;;;;;;24.08;4.82;;;;;;;7.80;87.11;95796.66;7398578;19;19998;-60
2024/04/02 04:31:30;;;;;;;23.35;5.03;;;;;;;7.67;89.32;95786.72;7398403;19;20015;-58
2024/04/02 04:33:55;;;;;;;16.58;4.45;;;;;;;7.60;89.02;95785.25;7398312;19;20003;-56
2024/04/02 04:36:21;;;;;;;23.60;4.50;;;;;;;8.48;83.48;95790.47;7398201;19;20059;-57
2024/04/02 04:38:46;;;;;;;20.45;4.40;;;;;;;8.50;83.69;95790.41;7398136;19;19995;-60
2024/04/02 04:41:12;;;;;;;18.30;4.20;;;;;;;8.29;86.04;95795.59;7398110;19;19998;-58
2024/04/02 04:43:37;;;;;;;24.05;4.72;;;;;;;8.26;86.31;95786.16;7397690;19;20014;-55
2024/04/02 04:46:06;;;;;;;44.78;5.40;;;;;;;8.38;85.10;95795.25;7397896;19;19995;-57
2024/04/02 04:48:32;;;;;;;27.75;6.38;;;;;;;8.07;88.43;95794.72;7397723;19;20009;-55
2024/04/02 04:51:04;;;;;;;15.82;4.43;;;;;;;8.18;87.43;95777.78;7397707;19;20463;-59
2024/04/02 04:53:31;;;;;;;27.70;4.28;;;;;;;8.40;86.60;95780.38;7397665;19;20020;-59
2024/04/02 04:56:03;;;;;;;22.38;4.43;;;;;;;8.58;86.55;95772.75;7397592;19;20005;-56
2024/04/02 04:58:29;;;;;;;27.52;4.93;;;;;;;8.49;87.14;95773.09;7397590;19;19995;-51
2024/04/02 05:00:55;;;;;;;31.85;4.68;;;;;;;8.79;86.54;95786.59;7397355;19;20019;-58
2024/04/02 05:03:21;;;;;;;24.58;5.40;;;;;;;8.92;86.31;95788.69;7396211;19;20058;-56
2024/04/02 05:05:46;;;;;;;21.42;4.80;;;;;;;9.30;83.39;95775.69;7395839;19;20014;-58
2024/04/02 05:08:18;;;;;;;27.60;4.97;;;;;;;9.52;85.00;95772.13;7397547;19;20010;-57
2024/04/02 05:10:47;;;;;;;22.88;4.75;;;;;;;9.58;81.86;95784.88;7397495;19;20009;-54
2024/04/02 05:13:14;;;;;;;25.58;5.00;;;;;;;9.80;81.87;95763.00;7397056;19;20116;-55
2024/04/02 05:15:40;;;;;;;23.98;4.40;;;;;;;10.15;79.14;95782.28;7397000;19;19999;-56
2024/04/02 05:18:07;;;;;;;19.80;4.38;;;;;;;10.61;77.83;95781.81;7396933;19;20062;-56
2024/04/02 05:20:32;;;;;;;28.38;4.63;;;;;;;10.34;81.34;95771.78;7397110;19;19998;-59
2024/04/02 05:22:58;;;;;;;20.38;5.30;;;;;;;10.78;78.50;95773.13;7396520;19;20357;-60
2024/04/02 05:25:23;;;;;;;21.65;4.22;;;;;;;11.10;77.45;95782.81;7392528;19;20001;-59
2024/04/02 05:27:49;;;;;;;23.88;4.25;;;;;;;11.33;78.67;95778.16;7396614;19;19990;-58
2024/04/02 05:30:15;;;;;;;16.40;4.32;;;;;;;11.77;74.27;95765.38;7396551;19;20062;-58
2024/04/02 05:32:41;;;;;;;23.63;4.70;;;;;;;11.66;76.19;95768.56;7396325;19;19999;-59
2024/04/02 05:35:06;;;;;;;16.15;4.50;;;;;;;12.46;73.40;95770.28;7394783;19;20002;-57
2024/04/02 05:37:32;;;;;;;23.88;4.90;;;;;;;13.35;67.97;95780.81;7396554;19;20002;-58
2024/04/02 05:39:57;;;;;;;25.48;4.82;;;;;;;13.84;63.94;95805.84;7396158;19;20354;-56
2024/04/02 05:42:23;;;;;;;26.67;5.63;;;;;;;14.99;59.42;95809.97;7395994;19;20005;-56
2024/04/02 05:44:49;;;;;;;31.50;4.68;;;;;;;15.44;58.11;95811.34;7395284;19;19994;-57
2024/04/02 05:47:16;;;;;;;22.30;4.78;;;;;;;16.29;55.52;95807.16;7395872;19;20005;-55
2024/04/02 05:49:41;;;;;;;24.52;5.45;;;;;;;14.89;60.05;95794.78;7396103;19;20003;-59
2024/04/02 05:52:07;;;;;;;25.02;5.47;;;;;;;14.86;60.66;95799.41;7395627;19;20323;-56
2024/04/02 05:54:32;;;;;;;27.95;5.53;;;;;;;14.15;62.89;95800.44;7395585;19;20002;-62
2024/04/02 05:57:00;;;;;;;21.33;5.72;;;;;;;15.25;59.91;95799.41;7395609;19;20002;-61
2024/04/02 05:59:26;;;;;;;24.30;5.68;;;;;;;15.63;59.52;95781.91;7395837;19;20058;-55
2024/04/02 06:01:52;;;;;;;34.25;4.70;;;;;;;15.37;59.10;95787.19;7395465;19;20002;-57
2024/04/02 06:04:17;;;;;;;24.15;4.90;;;;;;;15.18;59.12;95803.44;7393470;19;20003;-57
2024/04/02 06:06:46;;;;;;;15.27;4.18;;;;;;;14.47;62.13;95801.91;7395709;19;20003;-54
2024/04/02 06:09:12;;;;;;;21.50;5.10;;;;;;;15.05;60.41;95811.34;7395194;19;20040;-58
2024/04/02 06:11:37;;;;;;;25.02;4.68;;;;;;;14.85;60.25;95809.09;7395465;19;20006;-57
2024/04/02 06:14:03;;;;;;;27.08;5.45;;;;;;;15.80;56.29;95812.31;7394111;19;20468;-56
2024/04/02 06:16:28;;;;;;;26.15;5.90;;;;;;;15.43;59.59;95814.91;7395107;19;19999;-54
2024/04/02 06:18:54;;;;;;;26.77;5.70;;;;;;;16.89;56.17;95819.53;7395248;19;19995;-54
2024/04/02 06:21:19;;;;;;;27.13;5.90;;;;;;;17.86;51.21;95820.16;7395403;19;20066;-57
2024/04/02 06:23:46;;;;;;;23.27;4.80;;;;;;;17.66;53.13;95806.69;7394637;19;20022;-57
2024/04/02 06:26:15;;;;;;;21.58;4.30;;;;;;;17.74;50.33;95803.44;7394933;19;20399;-62
2024/04/02 06:28:46;;;;;;;28.23;5.25;;;;;;;17.13;52.61;95792.25;7394868;19;19999;-56
2024/04/02 06:31:12;;;;;;;29.80;5.20;;;;;;;18.50;50.41;95805.38;7394675;19;20070;-59
2024/04/02 06:33:37;;;;;;;25.30;5.82;;;;;;;19.05;49.99;95814.16;7394655;19;19999;-58
2024/04/02 06:36:03;;;;;;;23.52;5.22;;;;;;;18.35;51.96;95804.81;7394676;19;19995;-59
2024/04/02 06:38:29;;;;;;;26.75;5.18;;;;;;;18.68;51.35;95810.97;7402136;19;20009;-62
2024/04/02 06:40:55;;;;;;;22.95;5.53;;;;;;;18.61;49.75;95812.44;7402146;19;19995;-58
2024/04/02 06:43:21;;;;;;;26.67;6.47;;;;;;;19.10;49.51;95816.44;7401949;19;20022;-53
2024/04/02 06:45:57;;;;;;;25.48;6.03;;;;;;;19.14;50.18;95817.88;7399006;19;20011;-58
2024/04/02 06:48:23;;;;;;;24.70;5.13;;;;;;;19.70;46.63;95826.41;7401892;19;20002;-58
2024/04/02 06:50:58;;;;;;;30.65;6.35;;;;;;;19.99;47.38;95814.22;7401680;19;20007;-57
2024/04/02 06:53:25;;;;;;;26.95;5.05;;;;;;;19.35;46.77;95825.00;7400756;19;20353;-59
2024/04/02 06:55:51;;;;;;;25.88;4.45;;;;;;;20.82;39.06;95815.78;7401527;19;20005;-58
2024/04/02 06:58:17;;;;;;;23.23;4.85;;;;;;;20.98;36.90;95820.53;7401484;19;20406;-55
2024/04/02 07:00:44;;;;;;;38.03;5.10;;;;;;;21.58;35.79;95815.94;7401418;19;20035;-61
2024/04/02 07:03:14;;;;;;;30.27;5.60;;;;;;;21.57;34.11;95815.13;7399804;19;20010;-58
2024/04/02 07:05:40;;;;;;;28.17;5.15;;;;;;;20.78;34.33;95817.03;7398717;19;20007;-60
2024/04/02 07:08:05;;;;;;;30.75;5.50;;;;;;;22.60;31.68;95823.19;7401193;19;19995;-59
2024/04/02 07:10:31;;;;;;;30.40;5.28;;;;;;;22.85;30.95;95815.44;7401028;19;19995;-58
2024/04/02 07:12:57;;;;;;;28.75;6.00;;;;;;;22.03;31.88;95825.03;7401534;19;19999;-56
2024/04/02 07:15:22;;;;;;;29.15;5.88;;;;;;;23.64;35.37;95819.19;7399378;19;20375;-58
2024/04/02 07:17:49;;;;;;;32.13;5.90;;;;;;;24.57;33.70;95824.75;7401252;19;20003;-57
2024/04/02 07:20:15;;;;;;;19.45;5.38;;;;;;;22.97;38.52;95827.53;7400715;19;20074;-58
2024/04/02 07:22:41;;;;;;;32.70;6.25;;;;;;;23.09;39.99;95820.13;7400625;19;19990;-56
2024/04/02 07:25:06;;;;;;;31.83;5.13;;;;;;;24.02;35.28;95825.03;7398962;19;20015;-54
2024/04/02 07:27:33;;;;;;;25.80;6.55;;;;;;;24.21;34.69;95816.00;7400977;19;20363;-59
2024/04/02 07:29:59;;;;;;;34.55;6.25;;;;;;;24.86;31.22;95820.78;7400430;19;19998;-57
2024/04/02 07:32:25;;;;;;;36.47;6.22;;;;;;;26.11;30.05;95809.91;7400313;19;20010;-54
2024/04/02 07:34:51;;;;;;;29.55;5.72;;;;;;;25.35;29.62;95817.28;7400211;19;19998;-58
2024/04/02 07:37:16;;;;;;;31.27;6.20;;;;;;;26.33;28.61;95808.34;7400555;19;20414;-58
2024/04/02 07:39:42;;;;;;;27.35;6.15;;;;;;;25.39;31.63;95799.06;7400551;19;20338;-58
2024/04/02 07:42:07;;;;;;;30.02;5.90;;;;;;;25.92;32.91;95803.97;7400467;19;20095;-58
2024/04/02 07:44:33;;;;;;;22.75;5.72;;;;;;;25.68;33.46;95791.50;7398745;19;19999;-56
2024/04/02 07:46:59;;;;;;;26.17;6.45;;;;;;;24.36;34.78;95791.31;7400360;19;20467;-60
2024/04/02 07:49:24;;;;;;;31.88;6.57;;;;;;;25.32;31.93;95798.91;7398047;19;19999;-59
2024/04/02 07:51:52;;;;;;;30.95;6.15;;;;;;;25.06;32.13;95799.94;7399711;19;20020;-59
2024/04/02 07:54:18;;;;;;;31.98;6.53;;;;;;;25.29;32.63;95775.16;7399549;19;20354;-54
2024/04/02 07:56:43;;;;;;;23.88;5.38;;;;;;;25.73;32.21;95781.09;7399517;19;19995;-55
2024/04/02 07:59:09;;;;;;;31.10;6.38;;;;;;;25.84;30.95;95785.25;7399391;19;19994;-55
2024/04/02 08:01:34;;;;;;;35.55;6.35;;;;;;;26.64;28.36;95782.53;7399943;19;20019;-56
2024/04/02 08:04:00;;;;;;;26.25;6.22;;;;;;;26.92;27.66;95789.19;7397234;19;20017;-52
2024/04/02 08:06:25;;;;;;;29.85;6.20;;;;;;;27.31;26.69;95790.91;7399225;19;20344;-58
2024/04/02 08:08:51;;;;;;;41.08;6.28;;;;;;;26.36;27.69;95778.50;7399229;19;19998;-55
2024/04/02 08:11:16;;;;;;;37.90;7.63;;;;;;;26.29;27.27;95774.88;7399268;19;19994;-57
2024/04/02 08:13:42;;;;;;;43.85;7.50;;;;;;;26.05;26.12;95779.31;7399033;19;19994;-56
2024/04/02 08:16:08;;;;;;;43.17;7.38;;;;;;;26.35;28.20;95768.81;7399009;19;20009;-57
2024/04/02 08:18:33;;;;;;;37.53;6.97;;;;;;;26.60;27.99;95770.47;7398924;19;20009;-55
2024/04/02 08:20:59;;;;;;;34.33;7.35;;;;;;;27.17;26.67;95789.84;7398924;19;20007;-57
2024/04/02 08:23:24;;;;;;;39.17;7.50;;;;;;;25.98;27.75;95775.66;7399043;19;20396;-58
2024/04/02 08:25:50;;;;;;;25.30;6.93;;;;;;;26.45;27.62;95778.44;7396262;19;20002;-55
2024/04/02 08:28:16;;;;;;;38.33;6.55;;;;;;;26.82;26.83;95779.53;7398677;19;20032;-61
2024/04/02 08:30:42;;;;;;;34.17;6.70;;;;;;;26.84;26.93;95779.34;7398457;19;20050;-58
2024/04/02 08:33:07;;;;;;;39.03;6.45;;;;;;;26.26;27.65;95775.19;7398419;19;19999;-56
2024/04/02 08:35:33;;;;;;;39.40;6.53;;;;;;;26.95;28.05;95773.56;7398328;19;20002;-58
2024/04/02 08:37:58;;;;;;;32.80;7.22;;;;;;;26.43;27.34;95775.13;7398604;19;20014;-55
2024/04/02 08:40:31;;;;;;;37.22;6.68;;;;;;;26.38;27.46;95770.28;7398211;19;20365;-51
2024/04/02 08:43:04;;;;;;;41.92;7.35;;;;;;;26.49;28.73;95766.38;7398078;19;20006;-52
2024/04/02 08:45:30;;;;;;;35.10;6.95;;;;;;;27.12;26.67;95768.91;7396251;19;20473;-58
2024/04/02 08:47:56;;;;;;;35.28;7.38;;;;;;;26.81;27.66;95766.28;7397938;19;20533;-56
2024/04/02 08:50:23;;;;;;;33.80;7.10;;;;;;;27.01;25.39;95764.00;7397789;19;20485;-55
2024/04/02 08:52:51;;;;;;;41.55;7.45;;;;;;;26.34;26.86;95755.59;7398117;19;20006;-55
2024/04/02 08:55:19;;;;;;;41.55;8.05;;;;;;;26.80;25.43;95762.78;7397652;19;20002;-57
2024/04/02 08:57:49;;;;;;;47.45;8.02;;;;;;;27.61;25.87;95757.88;7397866;19;20003;-52
2024/04/02 09:00:16;;;;;;;32.63;7.35;;;;;;;26.92;27.49;95759.69;7397451;19;19991;-60
2024/04/02 09:02:47;;;;;;;34.75;7.82;;;;;;;26.22;28.19;95749.75;7397082;19;20362;-58
2024/04/02 09:05:13;;;;;;;43.53;7.47;;;;;;;25.54;28.35;95763.56;7396083;19;20015;-55
2024/04/02 09:07:39;;;;;;;45.38;6.95;;;;;;;25.39;27.07;95756.25;7397621;19;20009;-55
2024/04/02 09:10:05;;;;;;;36.58;6.53;;;;;;;25.52;27.43;95761.03;7395698;19;19995;-58
2024/04/02 09:12:31;;;;;;;40.58;7.82;;;;;;;26.54;26.27;95763.13;7397423;19;20007;-58
2024/04/02 09:14:58;;;;;;;38.08;6.95;;;;;;;26.47;26.33;95746.94;7396973;19;20457;-52
2024/04/02 09:17:25;;;;;;;39.30;7.45;;;;;;;26.47;24.99;95754.97;7395669;19;20334;-54
2024/04/02 09:19:50;;;;;;;46.08;7.55;;;;;;;26.55;26.43;95751.41;7395702;19;20062;-54
2024/04/02 09:22:17;;;;;;;35.10;6.90;;;;;;;26.32;27.48;95739.69;7396630;19;20473;-58
2024/04/02 09:24:43;;;;;;;30.55;6.82;;;;;;;26.70;27.19;95744.25;7395784;19;20006;-57
2024/04/02 09:27:09;;;;;;;53.38;8.32;;;;;;;26.24;23.05;95735.16;7396911;19;20010;-56
2024/04/02 09:29:35;;;;;;;47.05;7.00;;;;;;;25.94;23.73;95724.28;7396484;19;20011;-54
2024/04/02 09:32:05;;;;;;;40.40;8.07;;;;;;;26.43;26.30;95721.50;7396819;19;20011;-58
2024/04/02 09:34:33;;;;;;;47.55;7.40;;;;;;;26.80;25.71;95727.09;7396443;19;20466;-56
2024/04/02 09:37:15;;;;;;;40.78;7.95;;;;;;;26.71;25.64;95721.81;7396303;19;20462;-58
2024/04/02 09:39:42;;;;;;;40.63;7.05;;;;;;;27.00;25.24;95716.72;7396688;19;20030;-58
2024/04/02 09:42:10;;;;;;;42.08;7.68;;;;;;;27.07;24.68;95711.47;7396094;19;20011;-58
2024/04/02 09:44:39;;;;;;;38.50;6.97;;;;;;;26.69;23.99;95709.56;7395593;19;20341;-56
2024/04/02 09:47:06;;;;;;;37.53;7.72;;;;;;;27.19;25.78;95696.59;7396283;19;20025;-55
2024/04/02 09:49:35;;;;;;;48.03;7.65;;;;;;;26.15;24.01;95688.00;7395864;19;20009;-60
2024/04/02 09:52:03;;;;;;;41.55;7.38;;;;;;;27.10;24.92;95686.94;7395763;19;20007;-54
2024/04/02 09:54:31;;;;;;;42.65;7.25;;;;;;;26.68;23.01;95681.09;7395750;19;19998;-59
2024/04/02 09:57:00;;;;;;;46.60;8.38;;;;;;;27.05;25.53;95683.97;7395651;19;20002;-58
2024/04/02 09:59:26;;;;;;;36.97;7.63;;;;;;;27.14;26.87;95679.38;7395554;19;20006;-57
2024/04/02 10:01:53;;;;;;;43.80;7.57;;;;;;;27.36;26.20;95674.94;7395663;19;19999;-57
2024/04/02 10:04:22;;;;;;;41.85;7.80;;;;;;;27.45;25.12;95671.09;7394187;19;20010;-56
2024/04/02 10:06:50;;;;;;;37.67;7.35;;;;;;;27.23;25.31;95676.41;7395550;19;20010;-60
2024/04/02 10:09:17;;;;;;;44.67;7.97;;;;;;;26.05;24.47;95668.63;7395392;19;20487;-57
2024/04/02 10:11:45;;;;;;;44.25;7.25;;;;;;;26.75;23.78;95669.47;7394093;19;20003;-59
2024/04/02 10:14:13;;;;;;;47.75;7.47;;;;;;;26.75;24.10;95666.78;7395562;19;20027;-57
2024/04/02 10:16:49;;;;;;;41.95;7.35;;;;;;;27.04;24.16;95671.56;7395102;19;20528;-53
2024/04/02 10:19:17;;;;;;;43.65;7.80;;;;;;;27.48;22.79;95667.25;7395116;19;20005;-60
2024/04/02 10:21:46;;;;;;;45.75;8.18;;;;;;;27.00;23.24;95665.75;7394940;19;19998;-56
2024/04/02 10:24:15;;;;;;;42.42;8.52;;;;;;;27.08;21.77;95662.13;7394389;19;20014;-51
2024/04/02 10:26:41;;;;;;;41.95;8.15;;;;;;;27.38;21.99;95657.63;7394915;19;20006;-60
2024/04/02 10:29:07;;;;;;;45.83;7.55;;;;;;;27.37;22.12;95660.50;7395185;19;20011;-55
2024/04/02 10:31:35;;;;;;;41.63;7.97;;;;;;;27.40;22.76;95652.06;7393132;19;19999;-54
2024/04/02 10:34:01;;;;;;;31.73;6.80;;;;;;;27.18;21.23;95656.50;7394725;19;20011;-56
2024/04/02 10:36:26;;;;;;;42.85;8.10;;;;;;;27.34;21.46;95650.13;7394996;19;20045;-54
2024/04/02 10:38:52;;;;;;;41.33;7.38;;;;;;;27.00;21.62;95647.78;7394700;19;20003;-58
2024/04/02 10:41:17;;;;;;;39.95;7.53;;;;;;;27.17;20.91;95644.94;7394810;19;19999;-60
2024/04/02 10:43:43;;;;;;;51.53;7.35;;;;;;;26.95;20.51;95641.28;7394521;19;20671;-58
2024/04/02 10:46:09;;;;;;;39.92;7.70;;;;;;;27.60;20.89;95638.06;7394268;19;20453;-56
2024/04/02 10:48:35;;;;;;;30.52;6.80;;;;;;;27.18;19.62;95633.19;7394290;19;19995;-58
2024/04/02 10:51:01;;;;;;;44.58;7.32;;;;;;;27.11;21.12;95625.06;7394621;19;20025;-57
2024/04/02 10:53:27;;;;;;;36.55;6.93;;;;;;;27.54;20.71;95633.44;7394260;19;20468;-54
2024/04/02 10:55:52;;;;;;;35.63;6.60;;;;;;;27.71;19.56;95632.22;7394517;19;20010;-58
2024/04/02 10:58:19;;;;;;;45.10;6.82;;;;;;;27.00;20.05;95631.69;7394011;19;20378;-56
2024/04/02 11:00:45;;;;;;;34.83;7.55;;;;;;;26.58;20.51;95633.09;7394315;19;20078;-57
2024/04/02 11:03:12;;;;;;;40.97;7.70;;;;;;;26.28;21.90;95628.47;7392783;19;20062;-49
2024/04/02 11:05:38;;;;;;;29.38;6.70;;;;;;;25.92;21.44;95621.03;7392452;19;20014;-54
2024/04/02 11:08:03;;;;;;;127.90;14.30;;;;;;;26.71;21.89;95627.13;7393860;19;20489;-52
2024/04/02 11:10:29;;;;;;;38.88;6.15;;;;;;;27.63;19.91;95616.19;7394122;19;20472;-58
2024/04/02 11:12:55;;;;;;;34.60;5.55;;;;;;;26.87;20.93;95613.53;7393657;19;20007;-59
2024/04/02 11:15:21;;;;;;;41.25;6.88;;;;;;;26.25;20.39;95618.91;7393581;19;19998;-56
2024/04/02 11:17:47;;;;;;;34.45;6.35;;;;;;;26.07;20.27;95608.50;7393528;19;20714;-53
2024/04/02 11:20:13;;;;;;;35.53;7.45;;;;;;;26.43;20.76;95601.72;7393414;19;20014;-57
2024/04/02 11:25:24;;;;;;;40.72;7.57;;;;;;;26.80;19.25;95584.97;7399202;19;20020;-54
2024/04/02 11:27:50;;;;;;;42.22;7.57;;;;;;;27.27;20.61;95574.06;7400585;19;20453;-57